sensor_id;sensor_type;location;lat;lon;timestamp;P1;durP1;ratioP1;P2;durP2;ratioP2
10550;SDS011;5324;50.684;3.862;2024-01-06T00:01:44;5.40;;;2.50;;
10550;SDS011;5324;50.684;3.862;2024-01-06T00:04:12;3.77;;;2.03;;
10550;SDS011;5324;50.684;3.862;2024-01-06T00:06:38;8.50;;;2.20;;
10550;SDS011;5324;50.684;3.862;2024-01-06T00:09:04;4.53;;;1.60;;
10550;SDS011;5324;50.684;3.862;2024-01-06T00:11:31;2.43;;;1.67;;
10550;SDS011;5324;50.684;3.862;2024-01-06T00:13:57;4.67;;;2.37;;
10550;SDS011;5324;50.684;3.862;2024-01-06T00:16:23;3.80;;;1.77;;
10550;SDS011;5324;50.684;3.862;2024-01-06T00:18:49;5.87;;;2.13;;
10550;SDS011;5324;50.684;3.862;2024-01-06T00:21:15;3.63;;;2.07;;
10550;SDS011;5324;50.684;3.862;2024-01-06T00:23:41;2.57;;;1.60;;
10550;SDS011;5324;50.684;3.862;2024-01-06T00:26:07;2.17;;;1.80;;
10550;SDS011;5324;50.684;3.862;2024-01-06T00:28:34;2.63;;;1.80;;
10550;SDS011;5324;50.684;3.862;2024-01-06T00:31:00;1.83;;;1.73;;
10550;SDS011;5324;50.684;3.862;2024-01-06T00:33:26;3.00;;;2.30;;
10550;SDS011;5324;50.684;3.862;2024-01-06T00:35:52;4.07;;;2.20;;
10550;SDS011;5324;50.684;3.862;2024-01-06T00:38:20;3.43;;;1.83;;
10550;SDS011;5324;50.684;3.862;2024-01-06T00:40:46;2.07;;;1.63;;
10550;SDS011;5324;50.684;3.862;2024-01-06T00:43:12;3.80;;;1.80;;
10550;SDS011;5324;50.684;3.862;2024-01-06T00:45:38;2.13;;;1.77;;
10550;SDS011;5324;50.684;3.862;2024-01-06T00:48:04;2.63;;;1.73;;
10550;SDS011;5324;50.684;3.862;2024-01-06T00:50:30;3.30;;;1.80;;
10550;SDS011;5324;50.684;3.862;2024-01-06T00:52:56;1.73;;;1.63;;
10550;SDS011;5324;50.684;3.862;2024-01-06T00:55:22;2.17;;;1.80;;
10550;SDS011;5324;50.684;3.862;2024-01-06T00:57:49;3.90;;;1.97;;
10550;SDS011;5324;50.684;3.862;2024-01-06T01:00:15;2.50;;;1.87;;
10550;SDS011;5324;50.684;3.862;2024-01-06T01:02:41;2.90;;;2.00;;
10550;SDS011;5324;50.684;3.862;2024-01-06T01:05:07;3.93;;;1.90;;
10550;SDS011;5324;50.684;3.862;2024-01-06T01:07:34;2.50;;;1.87;;
10550;SDS011;5324;50.684;3.862;2024-01-06T01:10:00;4.40;;;2.00;;
10550;SDS011;5324;50.684;3.862;2024-01-06T01:12:26;2.13;;;1.80;;
10550;SDS011;5324;50.684;3.862;2024-01-06T01:14:52;2.40;;;1.67;;
10550;SDS011;5324;50.684;3.862;2024-01-06T01:17:18;3.30;;;2.60;;
10550;SDS011;5324;50.684;3.862;2024-01-06T01:19:45;3.70;;;2.30;;
10550;SDS011;5324;50.684;3.862;2024-01-06T01:22:11;3.27;;;2.97;;
10550;SDS011;5324;50.684;3.862;2024-01-06T01:24:37;4.07;;;2.37;;
10550;SDS011;5324;50.684;3.862;2024-01-06T01:27:03;3.97;;;2.47;;
10550;SDS011;5324;50.684;3.862;2024-01-06T01:29:29;2.10;;;1.90;;
10550;SDS011;5324;50.684;3.862;2024-01-06T01:31:55;6.47;;;2.60;;
10550;SDS011;5324;50.684;3.862;2024-01-06T01:34:21;2.40;;;2.10;;
10550;SDS011;5324;50.684;3.862;2024-01-06T01:36:47;3.27;;;2.30;;
10550;SDS011;5324;50.684;3.862;2024-01-06T01:39:13;3.13;;;2.20;;
10550;SDS011;5324;50.684;3.862;2024-01-06T01:41:40;4.43;;;1.97;;
10550;SDS011;5324;50.684;3.862;2024-01-06T01:44:06;6.33;;;2.50;;
10550;SDS011;5324;50.684;3.862;2024-01-06T01:46:32;5.10;;;2.37;;
10550;SDS011;5324;50.684;3.862;2024-01-06T01:48:59;3.57;;;2.20;;
10550;SDS011;5324;50.684;3.862;2024-01-06T01:51:26;2.43;;;2.23;;
10550;SDS011;5324;50.684;3.862;2024-01-06T01:53:53;3.30;;;1.90;;
10550;SDS011;5324;50.684;3.862;2024-01-06T01:56:19;7.27;;;2.43;;
10550;SDS011;5324;50.684;3.862;2024-01-06T01:58:46;4.40;;;2.20;;
10550;SDS011;5324;50.684;3.862;2024-01-06T02:01:12;3.93;;;2.10;;
10550;SDS011;5324;50.684;3.862;2024-01-06T02:03:38;3.60;;;2.20;;
10550;SDS011;5324;50.684;3.862;2024-01-06T02:06:08;2.77;;;1.93;;
10550;SDS011;5324;50.684;3.862;2024-01-06T02:08:34;2.17;;;1.77;;
10550;SDS011;5324;50.684;3.862;2024-01-06T02:11:00;5.40;;;2.10;;
10550;SDS011;5324;50.684;3.862;2024-01-06T02:13:33;2.63;;;2.17;;
10550;SDS011;5324;50.684;3.862;2024-01-06T02:16:03;3.93;;;2.07;;
10550;SDS011;5324;50.684;3.862;2024-01-06T02:18:30;4.40;;;2.20;;
10550;SDS011;5324;50.684;3.862;2024-01-06T02:21:00;4.30;;;2.47;;
10550;SDS011;5324;50.684;3.862;2024-01-06T02:23:27;3.37;;;1.87;;
10550;SDS011;5324;50.684;3.862;2024-01-06T02:25:53;2.17;;;1.80;;
10550;SDS011;5324;50.684;3.862;2024-01-06T02:28:19;3.33;;;2.27;;
10550;SDS011;5324;50.684;3.862;2024-01-06T02:30:45;3.93;;;2.10;;
10550;SDS011;5324;50.684;3.862;2024-01-06T02:33:11;4.00;;;2.00;;
10550;SDS011;5324;50.684;3.862;2024-01-06T02:35:37;5.13;;;2.23;;
10550;SDS011;5324;50.684;3.862;2024-01-06T02:38:05;3.57;;;2.40;;
10550;SDS011;5324;50.684;3.862;2024-01-06T02:40:31;5.23;;;2.00;;
10550;SDS011;5324;50.684;3.862;2024-01-06T02:42:57;2.87;;;1.93;;
10550;SDS011;5324;50.684;3.862;2024-01-06T02:45:23;3.63;;;2.03;;
10550;SDS011;5324;50.684;3.862;2024-01-06T02:47:50;2.83;;;2.40;;
10550;SDS011;5324;50.684;3.862;2024-01-06T02:50:16;3.03;;;2.40;;
10550;SDS011;5324;50.684;3.862;2024-01-06T02:52:42;2.83;;;1.90;;
10550;SDS011;5324;50.684;3.862;2024-01-06T02:55:08;2.73;;;2.40;;
10550;SDS011;5324;50.684;3.862;2024-01-06T02:57:34;2.87;;;2.17;;
10550;SDS011;5324;50.684;3.862;2024-01-06T03:00:00;2.40;;;2.03;;
10550;SDS011;5324;50.684;3.862;2024-01-06T03:02:26;4.00;;;2.27;;
10550;SDS011;5324;50.684;3.862;2024-01-06T03:04:53;4.23;;;2.20;;
10550;SDS011;5324;50.684;3.862;2024-01-06T03:07:19;4.13;;;1.93;;
10550;SDS011;5324;50.684;3.862;2024-01-06T03:09:46;4.60;;;2.30;;
10550;SDS011;5324;50.684;3.862;2024-01-06T03:12:12;3.30;;;2.43;;
10550;SDS011;5324;50.684;3.862;2024-01-06T03:14:38;4.20;;;2.20;;
10550;SDS011;5324;50.684;3.862;2024-01-06T03:17:04;2.40;;;2.10;;
10550;SDS011;5324;50.684;3.862;2024-01-06T03:19:30;2.43;;;2.00;;
10550;SDS011;5324;50.684;3.862;2024-01-06T03:21:56;2.40;;;2.20;;
10550;SDS011;5324;50.684;3.862;2024-01-06T03:24:22;2.43;;;2.00;;
10550;SDS011;5324;50.684;3.862;2024-01-06T03:26:49;2.20;;;1.93;;
10550;SDS011;5324;50.684;3.862;2024-01-06T03:29:15;4.17;;;2.17;;
10550;SDS011;5324;50.684;3.862;2024-01-06T03:31:41;3.30;;;2.00;;
10550;SDS011;5324;50.684;3.862;2024-01-06T03:34:08;3.47;;;2.17;;
10550;SDS011;5324;50.684;3.862;2024-01-06T03:36:34;2.53;;;2.30;;
10550;SDS011;5324;50.684;3.862;2024-01-06T03:39:00;3.63;;;2.40;;
10550;SDS011;5324;50.684;3.862;2024-01-06T03:41:26;3.70;;;2.13;;
10550;SDS011;5324;50.684;3.862;2024-01-06T03:43:52;3.20;;;2.17;;
10550;SDS011;5324;50.684;3.862;2024-01-06T03:46:18;4.63;;;2.50;;
10550;SDS011;5324;50.684;3.862;2024-01-06T03:48:44;3.37;;;2.17;;
10550;SDS011;5324;50.684;3.862;2024-01-06T03:51:11;2.70;;;2.20;;
10550;SDS011;5324;50.684;3.862;2024-01-06T03:53:38;2.83;;;2.00;;
10550;SDS011;5324;50.684;3.862;2024-01-06T03:56:05;2.03;;;1.83;;
10550;SDS011;5324;50.684;3.862;2024-01-06T03:58:31;1.60;;;1.50;;
10550;SDS011;5324;50.684;3.862;2024-01-06T04:00:57;3.20;;;1.97;;
10550;SDS011;5324;50.684;3.862;2024-01-06T04:03:23;2.20;;;1.97;;
10550;SDS011;5324;50.684;3.862;2024-01-06T04:05:49;2.20;;;1.60;;
10550;SDS011;5324;50.684;3.862;2024-01-06T04:08:15;2.60;;;1.87;;
10550;SDS011;5324;50.684;3.862;2024-01-06T04:10:41;2.00;;;1.80;;
10550;SDS011;5324;50.684;3.862;2024-01-06T04:13:08;2.67;;;1.70;;
10550;SDS011;5324;50.684;3.862;2024-01-06T04:15:34;2.37;;;1.80;;
10550;SDS011;5324;50.684;3.862;2024-01-06T04:18:03;3.30;;;2.07;;
10550;SDS011;5324;50.684;3.862;2024-01-06T04:20:30;4.07;;;2.10;;
10550;SDS011;5324;50.684;3.862;2024-01-06T04:22:56;2.80;;;1.97;;
10550;SDS011;5324;50.684;3.862;2024-01-06T04:25:22;4.17;;;1.90;;
10550;SDS011;5324;50.684;3.862;2024-01-06T04:27:48;3.57;;;2.13;;
10550;SDS011;5324;50.684;3.862;2024-01-06T04:30:15;2.60;;;2.30;;
10550;SDS011;5324;50.684;3.862;2024-01-06T04:32:41;4.60;;;2.10;;
10550;SDS011;5324;50.684;3.862;2024-01-06T04:35:07;2.10;;;1.90;;
10550;SDS011;5324;50.684;3.862;2024-01-06T04:37:34;4.07;;;2.30;;
10550;SDS011;5324;50.684;3.862;2024-01-06T04:40:00;3.60;;;2.30;;
10550;SDS011;5324;50.684;3.862;2024-01-06T04:42:26;5.83;;;2.70;;
10550;SDS011;5324;50.684;3.862;2024-01-06T04:44:52;3.23;;;2.10;;
10550;SDS011;5324;50.684;3.862;2024-01-06T04:47:18;4.53;;;2.43;;
10550;SDS011;5324;50.684;3.862;2024-01-06T04:49:44;5.53;;;2.03;;
10550;SDS011;5324;50.684;3.862;2024-01-06T04:52:10;2.77;;;2.10;;
10550;SDS011;5324;50.684;3.862;2024-01-06T04:54:36;3.80;;;1.87;;
10550;SDS011;5324;50.684;3.862;2024-01-06T04:57:02;3.43;;;1.90;;
10550;SDS011;5324;50.684;3.862;2024-01-06T04:59:29;2.23;;;1.80;;
10550;SDS011;5324;50.684;3.862;2024-01-06T05:01:55;2.87;;;2.07;;
10550;SDS011;5324;50.684;3.862;2024-01-06T05:04:23;5.87;;;2.37;;
10550;SDS011;5324;50.684;3.862;2024-01-06T05:06:49;4.23;;;2.03;;
10550;SDS011;5324;50.684;3.862;2024-01-06T05:09:15;2.27;;;1.80;;
10550;SDS011;5324;50.684;3.862;2024-01-06T05:11:43;1.87;;;1.77;;
10550;SDS011;5324;50.684;3.862;2024-01-06T05:14:09;2.20;;;1.80;;
10550;SDS011;5324;50.684;3.862;2024-01-06T05:16:35;1.93;;;1.73;;
10550;SDS011;5324;50.684;3.862;2024-01-06T05:19:01;1.87;;;1.47;;
10550;SDS011;5324;50.684;3.862;2024-01-06T05:21:27;1.80;;;1.60;;
10550;SDS011;5324;50.684;3.862;2024-01-06T05:23:53;1.60;;;1.50;;
10550;SDS011;5324;50.684;3.862;2024-01-06T05:26:19;3.30;;;1.40;;
10550;SDS011;5324;50.684;3.862;2024-01-06T05:28:45;1.23;;;1.23;;
10550;SDS011;5324;50.684;3.862;2024-01-06T05:31:11;1.20;;;1.17;;
10550;SDS011;5324;50.684;3.862;2024-01-06T05:33:38;1.50;;;1.20;;
10550;SDS011;5324;50.684;3.862;2024-01-06T05:36:04;1.20;;;1.10;;
10550;SDS011;5324;50.684;3.862;2024-01-06T05:38:30;4.23;;;1.40;;
10550;SDS011;5324;50.684;3.862;2024-01-06T05:40:56;1.47;;;1.30;;
10550;SDS011;5324;50.684;3.862;2024-01-06T05:43:23;2.17;;;1.43;;
10550;SDS011;5324;50.684;3.862;2024-01-06T05:45:49;1.77;;;1.40;;
10550;SDS011;5324;50.684;3.862;2024-01-06T05:48:15;2.50;;;1.53;;
10550;SDS011;5324;50.684;3.862;2024-01-06T05:50:42;2.27;;;1.50;;
10550;SDS011;5324;50.684;3.862;2024-01-06T05:53:08;2.83;;;1.40;;
10550;SDS011;5324;50.684;3.862;2024-01-06T05:55:35;1.90;;;1.50;;
10550;SDS011;5324;50.684;3.862;2024-01-06T05:58:01;1.67;;;1.50;;
10550;SDS011;5324;50.684;3.862;2024-01-06T06:00:27;1.60;;;1.50;;
10550;SDS011;5324;50.684;3.862;2024-01-06T06:02:56;2.63;;;1.30;;
10550;SDS011;5324;50.684;3.862;2024-01-06T06:05:22;1.80;;;1.60;;
10550;SDS011;5324;50.684;3.862;2024-01-06T06:07:48;1.70;;;1.60;;
10550;SDS011;5324;50.684;3.862;2024-01-06T06:10:14;1.50;;;1.40;;
10550;SDS011;5324;50.684;3.862;2024-01-06T06:12:44;2.20;;;1.50;;
10550;SDS011;5324;50.684;3.862;2024-01-06T06:15:10;2.00;;;1.80;;
10550;SDS011;5324;50.684;3.862;2024-01-06T06:17:36;2.37;;;1.80;;
10550;SDS011;5324;50.684;3.862;2024-01-06T06:20:02;3.10;;;1.83;;
10550;SDS011;5324;50.684;3.862;2024-01-06T06:22:28;2.83;;;2.43;;
10550;SDS011;5324;50.684;3.862;2024-01-06T06:24:58;4.90;;;3.00;;
10550;SDS011;5324;50.684;3.862;2024-01-06T06:27:24;4.73;;;2.40;;
10550;SDS011;5324;50.684;3.862;2024-01-06T06:29:51;3.63;;;2.33;;
10550;SDS011;5324;50.684;3.862;2024-01-06T06:32:17;3.60;;;2.50;;
10550;SDS011;5324;50.684;3.862;2024-01-06T06:34:43;3.80;;;2.40;;
10550;SDS011;5324;50.684;3.862;2024-01-06T06:37:09;5.27;;;2.67;;
10550;SDS011;5324;50.684;3.862;2024-01-06T06:39:35;2.97;;;2.67;;
10550;SDS011;5324;50.684;3.862;2024-01-06T06:42:02;6.20;;;3.40;;
10550;SDS011;5324;50.684;3.862;2024-01-06T06:44:28;3.53;;;3.17;;
10550;SDS011;5324;50.684;3.862;2024-01-06T06:46:54;4.70;;;3.23;;
10550;SDS011;5324;50.684;3.862;2024-01-06T06:49:21;4.50;;;3.70;;
10550;SDS011;5324;50.684;3.862;2024-01-06T06:51:47;7.57;;;4.70;;
10550;SDS011;5324;50.684;3.862;2024-01-06T06:54:13;5.70;;;4.43;;
10550;SDS011;5324;50.684;3.862;2024-01-06T06:56:41;6.80;;;4.57;;
10550;SDS011;5324;50.684;3.862;2024-01-06T06:59:07;5.83;;;4.00;;
10550;SDS011;5324;50.684;3.862;2024-01-06T07:01:33;5.30;;;4.23;;
10550;SDS011;5324;50.684;3.862;2024-01-06T07:04:00;3.87;;;3.40;;
10550;SDS011;5324;50.684;3.862;2024-01-06T07:06:27;3.80;;;3.50;;
10550;SDS011;5324;50.684;3.862;2024-01-06T07:08:53;4.00;;;3.57;;
10550;SDS011;5324;50.684;3.862;2024-01-06T07:11:19;4.00;;;3.60;;
10550;SDS011;5324;50.684;3.862;2024-01-06T07:13:46;3.90;;;3.47;;
10550;SDS011;5324;50.684;3.862;2024-01-06T07:16:11;5.40;;;3.40;;
10550;SDS011;5324;50.684;3.862;2024-01-06T07:18:37;3.83;;;3.47;;
10550;SDS011;5324;50.684;3.862;2024-01-06T07:21:04;3.60;;;3.30;;
10550;SDS011;5324;50.684;3.862;2024-01-06T07:23:31;4.40;;;2.97;;
10550;SDS011;5324;50.684;3.862;2024-01-06T07:25:57;4.13;;;3.40;;
10550;SDS011;5324;50.684;3.862;2024-01-06T07:28:24;4.70;;;3.40;;
10550;SDS011;5324;50.684;3.862;2024-01-06T07:30:50;4.03;;;2.97;;
10550;SDS011;5324;50.684;3.862;2024-01-06T07:33:16;3.57;;;3.10;;
10550;SDS011;5324;50.684;3.862;2024-01-06T07:35:42;4.20;;;3.80;;
10550;SDS011;5324;50.684;3.862;2024-01-06T07:38:11;4.90;;;4.00;;
10550;SDS011;5324;50.684;3.862;2024-01-06T07:40:37;5.43;;;3.83;;
10550;SDS011;5324;50.684;3.862;2024-01-06T07:43:03;4.97;;;3.70;;
10550;SDS011;5324;50.684;3.862;2024-01-06T07:45:30;5.07;;;4.53;;
10550;SDS011;5324;50.684;3.862;2024-01-06T07:47:56;7.33;;;4.43;;
10550;SDS011;5324;50.684;3.862;2024-01-06T07:50:22;6.43;;;4.30;;
10550;SDS011;5324;50.684;3.862;2024-01-06T07:52:48;5.07;;;4.20;;
10550;SDS011;5324;50.684;3.862;2024-01-06T07:55:14;7.20;;;4.87;;
10550;SDS011;5324;50.684;3.862;2024-01-06T07:57:41;6.07;;;4.73;;
10550;SDS011;5324;50.684;3.862;2024-01-06T08:00:07;9.03;;;6.33;;
10550;SDS011;5324;50.684;3.862;2024-01-06T08:02:34;7.50;;;5.40;;
10550;SDS011;5324;50.684;3.862;2024-01-06T08:04:59;6.40;;;5.33;;
10550;SDS011;5324;50.684;3.862;2024-01-06T08:07:26;6.83;;;4.87;;
10550;SDS011;5324;50.684;3.862;2024-01-06T08:09:52;6.40;;;5.07;;
10550;SDS011;5324;50.684;3.862;2024-01-06T08:12:18;5.83;;;4.23;;
10550;SDS011;5324;50.684;3.862;2024-01-06T08:14:44;6.03;;;4.63;;
10550;SDS011;5324;50.684;3.862;2024-01-06T08:17:10;6.57;;;3.80;;
10550;SDS011;5324;50.684;3.862;2024-01-06T08:19:36;6.23;;;4.23;;
10550;SDS011;5324;50.684;3.862;2024-01-06T08:22:02;6.33;;;4.47;;
10550;SDS011;5324;50.684;3.862;2024-01-06T08:24:28;7.77;;;4.37;;
10550;SDS011;5324;50.684;3.862;2024-01-06T08:26:54;5.37;;;4.80;;
10550;SDS011;5324;50.684;3.862;2024-01-06T08:29:20;7.63;;;5.07;;
10550;SDS011;5324;50.684;3.862;2024-01-06T08:31:46;6.10;;;4.97;;
10550;SDS011;5324;50.684;3.862;2024-01-06T08:34:12;8.57;;;5.03;;
10550;SDS011;5324;50.684;3.862;2024-01-06T08:36:38;5.07;;;4.53;;
10550;SDS011;5324;50.684;3.862;2024-01-06T08:39:04;6.77;;;5.13;;
10550;SDS011;5324;50.684;3.862;2024-01-06T08:41:30;7.43;;;4.97;;
10550;SDS011;5324;50.684;3.862;2024-01-06T08:43:57;5.73;;;5.13;;
10550;SDS011;5324;50.684;3.862;2024-01-06T08:46:23;6.27;;;4.83;;
10550;SDS011;5324;50.684;3.862;2024-01-06T08:48:49;6.63;;;5.07;;
10550;SDS011;5324;50.684;3.862;2024-01-06T08:51:15;5.53;;;4.77;;
10550;SDS011;5324;50.684;3.862;2024-01-06T08:53:41;9.43;;;6.13;;
10550;SDS011;5324;50.684;3.862;2024-01-06T08:56:08;8.10;;;5.60;;
10550;SDS011;5324;50.684;3.862;2024-01-06T08:58:34;8.10;;;5.60;;
10550;SDS011;5324;50.684;3.862;2024-01-06T09:01:00;9.73;;;6.20;;
10550;SDS011;5324;50.684;3.862;2024-01-06T09:03:26;8.40;;;6.07;;
10550;SDS011;5324;50.684;3.862;2024-01-06T09:05:53;9.13;;;5.77;;
10550;SDS011;5324;50.684;3.862;2024-01-06T09:08:19;9.07;;;6.13;;
10550;SDS011;5324;50.684;3.862;2024-01-06T09:10:46;7.87;;;5.90;;
10550;SDS011;5324;50.684;3.862;2024-01-06T09:13:12;8.40;;;6.00;;
10550;SDS011;5324;50.684;3.862;2024-01-06T09:15:38;7.53;;;5.53;;
10550;SDS011;5324;50.684;3.862;2024-01-06T09:18:04;7.77;;;5.23;;
10550;SDS011;5324;50.684;3.862;2024-01-06T09:20:30;8.30;;;5.97;;
10550;SDS011;5324;50.684;3.862;2024-01-06T09:22:56;7.17;;;5.27;;
10550;SDS011;5324;50.684;3.862;2024-01-06T09:25:22;10.73;;;6.00;;
10550;SDS011;5324;50.684;3.862;2024-01-06T09:27:49;7.87;;;5.57;;
10550;SDS011;5324;50.684;3.862;2024-01-06T09:30:17;7.07;;;5.90;;
10550;SDS011;5324;50.684;3.862;2024-01-06T09:32:43;8.27;;;5.30;;
10550;SDS011;5324;50.684;3.862;2024-01-06T09:35:09;6.93;;;5.57;;
10550;SDS011;5324;50.684;3.862;2024-01-06T09:37:35;8.47;;;5.70;;
10550;SDS011;5324;50.684;3.862;2024-01-06T09:40:01;9.30;;;5.70;;
10550;SDS011;5324;50.684;3.862;2024-01-06T09:42:27;7.03;;;5.30;;
10550;SDS011;5324;50.684;3.862;2024-01-06T09:44:54;7.03;;;6.30;;
10550;SDS011;5324;50.684;3.862;2024-01-06T09:47:20;10.27;;;5.63;;
10550;SDS011;5324;50.684;3.862;2024-01-06T09:49:49;9.17;;;5.63;;
10550;SDS011;5324;50.684;3.862;2024-01-06T09:52:19;6.93;;;5.20;;
10550;SDS011;5324;50.684;3.862;2024-01-06T09:54:50;4.73;;;4.23;;
10550;SDS011;5324;50.684;3.862;2024-01-06T09:57:16;6.83;;;5.03;;
10550;SDS011;5324;50.684;3.862;2024-01-06T09:59:46;8.63;;;4.87;;
10550;SDS011;5324;50.684;3.862;2024-01-06T10:02:15;5.83;;;4.13;;
10550;SDS011;5324;50.684;3.862;2024-01-06T10:04:45;7.13;;;4.63;;
10550;SDS011;5324;50.684;3.862;2024-01-06T10:07:11;6.90;;;4.73;;
10550;SDS011;5324;50.684;3.862;2024-01-06T10:09:40;8.67;;;4.60;;
10550;SDS011;5324;50.684;3.862;2024-01-06T10:12:09;5.47;;;4.40;;
10550;SDS011;5324;50.684;3.862;2024-01-06T10:14:35;7.13;;;4.87;;
10550;SDS011;5324;50.684;3.862;2024-01-06T10:17:02;6.53;;;5.47;;
10550;SDS011;5324;50.684;3.862;2024-01-06T10:19:31;6.40;;;4.97;;
10550;SDS011;5324;50.684;3.862;2024-01-06T10:21:57;6.33;;;5.03;;
10550;SDS011;5324;50.684;3.862;2024-01-06T10:24:27;8.20;;;5.47;;
10550;SDS011;5324;50.684;3.862;2024-01-06T10:26:53;5.67;;;4.33;;
10550;SDS011;5324;50.684;3.862;2024-01-06T10:29:19;5.63;;;3.97;;
10550;SDS011;5324;50.684;3.862;2024-01-06T10:31:45;4.80;;;3.77;;
10550;SDS011;5324;50.684;3.862;2024-01-06T10:34:11;3.67;;;3.33;;
10550;SDS011;5324;50.684;3.862;2024-01-06T10:36:37;4.33;;;3.63;;
10550;SDS011;5324;50.684;3.862;2024-01-06T10:39:03;3.97;;;3.40;;
10550;SDS011;5324;50.684;3.862;2024-01-06T10:41:30;5.33;;;4.27;;
10550;SDS011;5324;50.684;3.862;2024-01-06T10:43:56;3.93;;;3.60;;
10550;SDS011;5324;50.684;3.862;2024-01-06T10:46:26;4.57;;;4.17;;
10550;SDS011;5324;50.684;3.862;2024-01-06T10:48:52;7.70;;;4.70;;
10550;SDS011;5324;50.684;3.862;2024-01-06T10:51:19;7.13;;;4.73;;
10550;SDS011;5324;50.684;3.862;2024-01-06T10:53:47;7.20;;;4.40;;
10550;SDS011;5324;50.684;3.862;2024-01-06T10:56:14;4.73;;;4.23;;
10550;SDS011;5324;50.684;3.862;2024-01-06T10:58:44;4.00;;;3.70;;
10550;SDS011;5324;50.684;3.862;2024-01-06T11:01:12;4.17;;;3.60;;
10550;SDS011;5324;50.684;3.862;2024-01-06T11:03:38;3.83;;;3.53;;
10550;SDS011;5324;50.684;3.862;2024-01-06T11:06:05;4.13;;;3.63;;
10550;SDS011;5324;50.684;3.862;2024-01-06T11:08:35;3.70;;;3.40;;
10550;SDS011;5324;50.684;3.862;2024-01-06T11:11:02;3.97;;;3.47;;
10550;SDS011;5324;50.684;3.862;2024-01-06T11:13:30;3.83;;;3.30;;
10550;SDS011;5324;50.684;3.862;2024-01-06T11:15:56;3.93;;;3.40;;
10550;SDS011;5324;50.684;3.862;2024-01-06T11:18:38;3.47;;;3.20;;
10550;SDS011;5324;50.684;3.862;2024-01-06T11:23:37;3.77;;;3.17;;
10550;SDS011;5324;50.684;3.862;2024-01-06T11:26:06;5.33;;;4.20;;
10550;SDS011;5324;50.684;3.862;2024-01-06T11:28:42;4.53;;;3.50;;
10550;SDS011;5324;50.684;3.862;2024-01-06T11:31:09;5.10;;;3.90;;
10550;SDS011;5324;50.684;3.862;2024-01-06T11:33:45;5.00;;;3.73;;
10550;SDS011;5324;50.684;3.862;2024-01-06T11:36:14;5.13;;;3.83;;
10550;SDS011;5324;50.684;3.862;2024-01-06T11:38:41;5.00;;;3.90;;
10550;SDS011;5324;50.684;3.862;2024-01-06T11:41:13;7.07;;;4.03;;
10550;SDS011;5324;50.684;3.862;2024-01-06T11:43:57;4.63;;;3.90;;
10550;SDS011;5324;50.684;3.862;2024-01-06T11:46:23;5.83;;;3.57;;
10550;SDS011;5324;50.684;3.862;2024-01-06T11:48:50;4.20;;;3.80;;
10550;SDS011;5324;50.684;3.862;2024-01-06T11:51:17;4.67;;;4.17;;
10550;SDS011;5324;50.684;3.862;2024-01-06T11:53:43;6.47;;;4.50;;
10550;SDS011;5324;50.684;3.862;2024-01-06T11:56:10;5.47;;;4.40;;
10550;SDS011;5324;50.684;3.862;2024-01-06T11:58:39;5.47;;;4.90;;
10550;SDS011;5324;50.684;3.862;2024-01-06T12:01:05;6.33;;;4.17;;
10550;SDS011;5324;50.684;3.862;2024-01-06T12:03:32;6.63;;;4.37;;
10550;SDS011;5324;50.684;3.862;2024-01-06T12:06:01;5.47;;;4.57;;
10550;SDS011;5324;50.684;3.862;2024-01-06T12:08:28;5.53;;;4.77;;
10550;SDS011;5324;50.684;3.862;2024-01-06T12:11:03;5.13;;;4.63;;
10550;SDS011;5324;50.684;3.862;2024-01-06T12:13:30;6.83;;;5.77;;
10550;SDS011;5324;50.684;3.862;2024-01-06T12:15:56;6.60;;;5.50;;
10550;SDS011;5324;50.684;3.862;2024-01-06T12:18:22;5.57;;;4.97;;
10550;SDS011;5324;50.684;3.862;2024-01-06T12:20:49;7.10;;;6.27;;
10550;SDS011;5324;50.684;3.862;2024-01-06T12:23:28;7.13;;;5.27;;
10550;SDS011;5324;50.684;3.862;2024-01-06T12:25:55;5.40;;;4.90;;
10550;SDS011;5324;50.684;3.862;2024-01-06T12:28:21;7.33;;;5.33;;
10550;SDS011;5324;50.684;3.862;2024-01-06T12:30:48;5.90;;;5.37;;
10550;SDS011;5324;50.684;3.862;2024-01-06T12:33:14;6.03;;;5.30;;
10550;SDS011;5324;50.684;3.862;2024-01-06T12:35:40;7.60;;;5.50;;
10550;SDS011;5324;50.684;3.862;2024-01-06T12:38:08;9.03;;;5.30;;
10550;SDS011;5324;50.684;3.862;2024-01-06T12:40:37;7.97;;;5.97;;
10550;SDS011;5324;50.684;3.862;2024-01-06T12:43:04;6.63;;;5.50;;
10550;SDS011;5324;50.684;3.862;2024-01-06T12:45:30;7.47;;;6.50;;
10550;SDS011;5324;50.684;3.862;2024-01-06T12:47:56;6.67;;;5.23;;
10550;SDS011;5324;50.684;3.862;2024-01-06T12:50:22;7.30;;;5.57;;
10550;SDS011;5324;50.684;3.862;2024-01-06T12:52:48;11.23;;;5.77;;
10550;SDS011;5324;50.684;3.862;2024-01-06T12:55:14;7.00;;;5.13;;
10550;SDS011;5324;50.684;3.862;2024-01-06T12:57:42;6.57;;;5.80;;
10550;SDS011;5324;50.684;3.862;2024-01-06T13:00:08;7.53;;;5.47;;
10550;SDS011;5324;50.684;3.862;2024-01-06T13:02:37;8.60;;;5.30;;
10550;SDS011;5324;50.684;3.862;2024-01-06T13:05:03;6.10;;;5.40;;
10550;SDS011;5324;50.684;3.862;2024-01-06T13:07:29;7.10;;;6.27;;
10550;SDS011;5324;50.684;3.862;2024-01-06T13:09:56;6.87;;;5.20;;
10550;SDS011;5324;50.684;3.862;2024-01-06T13:12:22;8.87;;;5.77;;
10550;SDS011;5324;50.684;3.862;2024-01-06T13:14:49;6.93;;;5.33;;
10550;SDS011;5324;50.684;3.862;2024-01-06T13:17:16;7.47;;;5.47;;
10550;SDS011;5324;50.684;3.862;2024-01-06T13:19:42;5.67;;;5.07;;
10550;SDS011;5324;50.684;3.862;2024-01-06T13:22:08;7.53;;;6.00;;
10550;SDS011;5324;50.684;3.862;2024-01-06T13:24:34;7.87;;;5.53;;
10550;SDS011;5324;50.684;3.862;2024-01-06T13:27:08;6.90;;;5.67;;
10550;SDS011;5324;50.684;3.862;2024-01-06T13:29:36;8.70;;;5.80;;
10550;SDS011;5324;50.684;3.862;2024-01-06T13:32:03;6.50;;;4.87;;
10550;SDS011;5324;50.684;3.862;2024-01-06T13:34:30;7.73;;;5.60;;
10550;SDS011;5324;50.684;3.862;2024-01-06T13:36:57;6.23;;;5.33;;
10550;SDS011;5324;50.684;3.862;2024-01-06T13:39:23;5.93;;;4.93;;
10550;SDS011;5324;50.684;3.862;2024-01-06T13:41:49;7.43;;;5.47;;
10550;SDS011;5324;50.684;3.862;2024-01-06T13:44:15;7.33;;;5.57;;
10550;SDS011;5324;50.684;3.862;2024-01-06T13:46:41;6.67;;;4.83;;
10550;SDS011;5324;50.684;3.862;2024-01-06T13:49:12;5.93;;;4.80;;
10550;SDS011;5324;50.684;3.862;2024-01-06T13:51:41;7.37;;;5.23;;
10550;SDS011;5324;50.684;3.862;2024-01-06T13:54:07;5.17;;;4.30;;
10550;SDS011;5324;50.684;3.862;2024-01-06T13:56:34;5.83;;;4.00;;
10550;SDS011;5324;50.684;3.862;2024-01-06T13:59:00;5.97;;;4.17;;
10550;SDS011;5324;50.684;3.862;2024-01-06T14:01:26;7.33;;;4.57;;
10550;SDS011;5324;50.684;3.862;2024-01-06T14:03:53;7.67;;;4.80;;
10550;SDS011;5324;50.684;3.862;2024-01-06T14:06:28;5.33;;;3.67;;
10550;SDS011;5324;50.684;3.862;2024-01-06T14:08:55;5.77;;;3.73;;
10550;SDS011;5324;50.684;3.862;2024-01-06T14:11:22;7.47;;;4.37;;
10550;SDS011;5324;50.684;3.862;2024-01-06T14:13:48;6.33;;;4.60;;
10550;SDS011;5324;50.684;3.862;2024-01-06T14:16:14;7.20;;;6.00;;
10550;SDS011;5324;50.684;3.862;2024-01-06T14:18:41;4.47;;;3.80;;
10550;SDS011;5324;50.684;3.862;2024-01-06T14:21:08;4.97;;;3.60;;
10550;SDS011;5324;50.684;3.862;2024-01-06T14:23:35;4.57;;;2.87;;
10550;SDS011;5324;50.684;3.862;2024-01-06T14:26:01;3.80;;;3.40;;
10550;SDS011;5324;50.684;3.862;2024-01-06T14:28:27;3.83;;;3.37;;
10550;SDS011;5324;50.684;3.862;2024-01-06T14:30:53;5.93;;;3.70;;
10550;SDS011;5324;50.684;3.862;2024-01-06T14:33:19;5.83;;;3.77;;
10550;SDS011;5324;50.684;3.862;2024-01-06T14:35:45;4.37;;;3.27;;
10550;SDS011;5324;50.684;3.862;2024-01-06T14:38:11;5.00;;;3.20;;
10550;SDS011;5324;50.684;3.862;2024-01-06T14:40:38;6.47;;;3.70;;
10550;SDS011;5324;50.684;3.862;2024-01-06T14:43:04;5.30;;;3.03;;
10550;SDS011;5324;50.684;3.862;2024-01-06T14:45:30;3.73;;;2.87;;
10550;SDS011;5324;50.684;3.862;2024-01-06T14:47:57;3.53;;;3.10;;
10550;SDS011;5324;50.684;3.862;2024-01-06T14:50:23;4.90;;;3.27;;
10550;SDS011;5324;50.684;3.862;2024-01-06T14:52:49;3.87;;;2.80;;
10550;SDS011;5324;50.684;3.862;2024-01-06T14:55:15;3.77;;;2.90;;
10550;SDS011;5324;50.684;3.862;2024-01-06T14:57:41;4.03;;;3.03;;
10550;SDS011;5324;50.684;3.862;2024-01-06T15:00:08;4.63;;;2.70;;